createdAt,value
2022-12-08T00:00:57.328Z,101531.28
2022-12-08T00:01:59.264Z,101534.02
2022-12-08T00:03:01.555Z,101532.16
2022-12-08T00:04:03.418Z,101538.16
2022-12-08T00:05:05.708Z,101533.03
2022-12-08T00:06:07.757Z,101536.68
2022-12-08T00:07:09.539Z,101543.66
2022-12-08T00:08:11.380Z,101549.88
2022-12-08T00:09:13.222Z,101542.35
2022-12-08T00:10:47.269Z,101535.53
2022-12-08T00:11:18.839Z,101530.39
2022-12-08T00:12:20.636Z,101532.17
2022-12-08T00:13:22.452Z,101533.84
2022-12-08T00:14:24.294Z,101530.39
2022-12-08T00:15:26.090Z,101527.91
2022-12-08T00:16:28.037Z,101525.34
2022-12-08T00:17:29.817Z,101519.52
2022-12-08T00:18:31.601Z,101517.83
2022-12-08T00:19:33.464Z,101515.26
2022-12-08T00:20:35.454Z,101515.26
2022-12-08T00:21:37.243Z,101522.95
2022-12-08T00:22:38.964Z,101522.95
2022-12-08T00:23:40.786Z,101522.08
2022-12-08T00:24:42.725Z,101518.52
2022-12-08T00:25:44.522Z,101515.87
2022-12-08T00:26:46.434Z,101514.20
2022-12-08T00:27:48.224Z,101508.89
2022-12-08T00:28:50.040Z,101512.34
2022-12-08T00:29:51.879Z,101510.55
2022-12-08T00:30:53.784Z,101515.51
2022-12-08T00:31:55.731Z,101514.55
2022-12-08T00:32:57.565Z,101518.08
2022-12-08T00:33:59.374Z,101521.46
2022-12-08T00:35:01.428Z,101521.55
2022-12-08T00:36:03.537Z,101521.64
2022-12-08T00:37:05.343Z,101526.95
2022-12-08T00:38:07.155Z,101521.91
2022-12-08T00:39:08.969Z,101517.56
2022-12-08T00:40:12.007Z,101523.48
2022-12-08T00:41:13.791Z,101522.69
2022-12-08T00:42:15.585Z,101529.70
2022-12-08T00:43:17.306Z,101522.08
2022-12-08T00:44:19.111Z,101526.44
2022-12-08T00:45:21.316Z,101525.53
2022-12-08T00:46:23.305Z,101531.48
2022-12-08T00:47:25.318Z,101526.44
2022-12-08T00:48:27.115Z,101527.39
2022-12-08T00:49:28.930Z,101532.62
2022-12-08T00:50:30.803Z,101535.27
2022-12-08T00:51:32.622Z,101530.14
2022-12-08T00:52:34.426Z,101538.63
2022-12-08T00:53:36.247Z,101530.92
2022-12-08T00:54:38.067Z,101528.36
2022-12-08T00:55:40.105Z,101531.83
2022-12-08T00:56:42.101Z,101534.40
2022-12-08T00:57:43.921Z,101537.93
2022-12-08T00:58:45.760Z,101533.67
2022-12-08T00:59:47.559Z,101526.97
2022-12-08T01:00:49.719Z,101532.19
2022-12-08T01:01:51.566Z,101530.49
2022-12-08T01:02:53.408Z,101526.14
2022-12-08T01:03:55.184Z,101525.27
2022-12-08T01:04:57.008Z,101526.14
2022-12-08T01:05:58.850Z,101529.62
2022-12-08T01:07:00.749Z,101528.02
2022-12-08T01:08:02.628Z,101528.89
2022-12-08T01:09:04.443Z,101525.53
2022-12-08T01:10:06.965Z,101528.10
2022-12-08T01:11:09.139Z,101523.75
2022-12-08T01:12:10.921Z,101522.09
2022-12-08T01:13:12.746Z,101523.58
2022-12-08T01:14:14.554Z,101515.70
2022-12-08T01:15:16.356Z,101519.88
2022-12-08T01:16:18.344Z,101513.69
2022-12-08T01:17:20.199Z,101504.98
2022-12-08T01:18:22.002Z,101511.64
2022-12-08T01:19:23.843Z,101512.52
2022-12-08T01:20:25.728Z,101510.73
2022-12-08T01:21:27.600Z,101517.65
2022-12-08T01:22:29.413Z,101514.30
2022-12-08T01:23:31.217Z,101511.73
2022-12-08T01:24:33.018Z,101513.39
2022-12-08T01:25:34.827Z,101516.08
2022-12-08T01:26:36.827Z,101519.52
2022-12-08T01:27:38.645Z,101517.04
2022-12-08T01:28:40.442Z,101522.17
2022-12-08T01:29:42.239Z,101519.61
2022-12-08T01:30:44.378Z,101518.82
2022-12-08T01:31:46.278Z,101519.61
2022-12-08T01:32:48.087Z,101516.16
2022-12-08T01:33:49.916Z,101521.39
2022-12-08T01:34:51.721Z,101520.48
2022-12-08T01:35:53.716Z,101521.21
2022-12-08T01:36:55.875Z,101524.66
2022-12-08T01:37:57.645Z,101526.44
2022-12-08T01:38:59.466Z,101526.44
2022-12-08T01:40:01.757Z,101530.75
2022-12-08T01:41:03.751Z,101533.41
2022-12-08T01:42:05.643Z,101534.31
2022-12-08T01:43:07.444Z,101529.18
2022-12-08T01:44:09.232Z,101530.05
2022-12-08T01:45:11.035Z,101524.13
2022-12-08T01:46:12.984Z,101531.02
2022-12-08T01:47:14.843Z,101522.53
2022-12-08T01:48:16.672Z,101517.48
2022-12-08T01:49:18.465Z,101523.41
2022-12-08T01:50:20.377Z,101521.66
2022-12-08T01:51:22.189Z,101514.65
2022-12-08T01:52:24.037Z,101522.34
2022-12-08T01:53:25.842Z,101517.22
2022-12-08T01:54:27.644Z,101511.12
2022-12-08T01:55:29.465Z,101511.99
2022-12-08T01:56:31.579Z,101513.77
2022-12-08T01:57:33.561Z,101509.34
2022-12-08T01:58:35.370Z,101503.42
2022-12-08T01:59:37.190Z,101508.47
2022-12-08T02:00:39.088Z,101501.55
2022-12-08T02:01:41.073Z,101503.23
2022-12-08T02:02:43.034Z,101501.55
2022-12-08T02:03:44.970Z,101492.16
2022-12-08T02:04:46.789Z,101501.55
2022-12-08T02:05:48.620Z,101500.67
2022-12-08T02:06:50.797Z,101503.33
2022-12-08T02:07:52.673Z,101495.54
2022-12-08T02:08:54.470Z,101501.55
2022-12-08T02:09:56.272Z,101497.28
2022-12-08T02:10:58.183Z,101503.50
2022-12-08T02:12:00.005Z,101499.06
2022-12-08T02:13:01.888Z,101495.54
2022-12-08T02:14:03.687Z,101491.19
2022-12-08T02:15:05.782Z,101499.77
2022-12-08T02:16:07.992Z,101493.67
2022-12-08T02:17:09.813Z,101497.81
2022-12-08T02:18:11.694Z,101500.38
2022-12-08T02:20:17.126Z,101502.94
2022-12-08T02:21:18.937Z,101503.76
2022-12-08T02:22:20.739Z,101509.77
2022-12-08T02:23:22.600Z,101500.38
2022-12-08T02:24:24.414Z,101503.67
2022-12-08T02:25:26.216Z,101509.77
2022-12-08T02:26:28.009Z,101498.72
2022-12-08T02:27:29.818Z,101504.81
2022-12-08T02:28:31.701Z,101500.67
2022-12-08T02:29:33.516Z,101511.03
2022-12-08T02:30:35.582Z,101513.59
2022-12-08T02:31:37.459Z,101514.38
2022-12-08T02:32:39.256Z,101516.08
2022-12-08T02:33:41.097Z,101529.88
2022-12-08T02:34:42.911Z,101528.27
2022-12-08T02:35:44.715Z,101533.49
2022-12-08T02:36:46.817Z,101534.58
2022-12-08T02:37:48.627Z,101538.20
2022-12-08T02:38:50.488Z,101540.94
2022-12-08T02:39:52.286Z,101535.98
2022-12-08T02:40:54.191Z,101539.63
2022-12-08T02:41:55.990Z,101531.20
2022-12-08T02:42:57.789Z,101524.40
2022-12-08T02:43:59.684Z,101520.92
2022-12-08T02:45:01.488Z,101526.06
2022-12-08T02:46:03.427Z,101520.84
2022-12-08T02:47:05.287Z,101523.41
2022-12-08T02:48:07.105Z,101532.19
2022-12-08T02:49:08.978Z,101531.45
2022-12-08T02:50:10.981Z,101537.67
2022-12-08T02:51:12.791Z,101537.85
2022-12-08T02:52:14.595Z,101536.24
2022-12-08T02:53:16.391Z,101532.88
2022-12-08T02:54:18.235Z,101530.41
2022-12-08T02:55:20.058Z,101526.92
2022-12-08T02:56:22.083Z,101532.06
2022-12-08T02:57:23.882Z,101524.36
2022-12-08T02:58:25.692Z,101532.80
2022-12-08T02:59:27.617Z,101533.67
2022-12-08T03:00:29.525Z,101535.45
2022-12-08T03:01:31.497Z,101541.55
2022-12-08T03:02:33.383Z,101544.30
2022-12-08T03:03:35.257Z,101544.38
2022-12-08T03:04:37.103Z,101546.08
2022-12-08T03:05:38.902Z,101538.45
2022-12-08T03:06:40.810Z,101534.11
2022-12-08T03:07:42.652Z,101537.58
2022-12-08T03:08:44.425Z,101545.29
2022-12-08T03:09:46.266Z,101535.89
2022-12-08T03:10:48.161Z,101535.09
2022-12-08T03:11:49.984Z,101536.05
2022-12-08T03:12:51.795Z,101536.93
2022-12-08T03:13:53.588Z,101540.50
2022-12-08T03:14:55.499Z,101534.53
2022-12-08T03:15:57.386Z,101536.23
2022-12-08T03:16:59.330Z,101531.87
2022-12-08T03:18:01.134Z,101533.58
2022-12-08T03:19:02.939Z,101530.92
2022-12-08T03:20:05.062Z,101532.70
2022-12-08T03:21:07.013Z,101534.53
2022-12-08T03:22:08.962Z,101526.83
2022-12-08T03:23:10.764Z,101534.53
2022-12-08T03:24:12.573Z,101528.61
2022-12-08T03:25:14.409Z,101531.97
2022-12-08T03:26:16.301Z,101531.87
2022-12-08T03:27:18.110Z,101530.22
2022-12-08T03:28:19.922Z,101531.97
2022-12-08T03:29:21.718Z,101538.02
2022-12-08T03:30:23.743Z,101534.62
2022-12-08T03:31:25.613Z,101539.05
2022-12-08T03:32:27.471Z,101534.09
2022-12-08T03:33:29.273Z,101537.53
2022-12-08T03:34:31.078Z,101544.53
2022-12-08T03:35:32.940Z,101534.26
2022-12-08T03:36:35.452Z,101541.09
2022-12-08T03:37:37.268Z,101533.47
2022-12-08T03:38:39.074Z,101539.48
2022-12-08T03:39:40.877Z,101543.75
2022-12-08T03:40:42.835Z,101542.05
2022-12-08T03:41:44.635Z,101542.05
2022-12-08T03:42:46.433Z,101533.47
2022-12-08T03:43:48.236Z,101535.95
2022-12-08T03:44:50.036Z,101540.19
2022-12-08T03:45:51.929Z,101543.66
2022-12-08T03:46:53.857Z,101538.44
2022-12-08T03:47:55.658Z,101539.23
2022-12-08T03:48:57.483Z,101541.01
2022-12-08T03:49:59.337Z,101545.23
2022-12-08T03:51:01.286Z,101535.87
2022-12-08T03:52:03.084Z,101535.70
2022-12-08T03:53:04.885Z,101534.96
2022-12-08T03:54:06.699Z,101540.19
2022-12-08T03:55:08.506Z,101537.70
2022-12-08T03:56:11.066Z,101535.05
2022-12-08T03:57:12.966Z,101530.81
2022-12-08T03:58:14.770Z,101529.91
2022-12-08T03:59:16.585Z,101530.73
2022-12-08T04:00:18.402Z,101526.30
2022-12-08T04:01:20.828Z,101532.13
2022-12-08T04:02:22.790Z,101531.27
2022-12-08T04:03:24.669Z,101528.61
2022-12-08T04:04:26.557Z,101529.56
2022-12-08T04:05:28.382Z,101527.98
2022-12-08T04:06:30.327Z,101527.17
2022-12-08T04:07:32.130Z,101536.66
2022-12-08T04:08:33.924Z,101534.09
2022-12-08T04:09:35.848Z,101537.53
2022-12-08T04:10:37.753Z,101527.17
2022-12-08T04:11:39.595Z,101531.44
2022-12-08T04:12:41.388Z,101527.98
2022-12-08T04:13:43.205Z,101532.22
2022-12-08T04:14:45.167Z,101539.93
2022-12-08T04:15:47.008Z,101540.02
2022-12-08T04:16:49.350Z,101530.56
2022-12-08T04:17:51.150Z,101535.78
2022-12-08T04:18:53.134Z,101540.19
2022-12-08T04:19:54.952Z,101539.48
2022-12-08T04:20:56.968Z,101545.49
2022-12-08T04:21:58.876Z,101532.64
2022-12-08T04:23:00.949Z,101531.86
2022-12-08T04:24:02.997Z,101530.16
2022-12-08T04:25:04.806Z,101531.07
2022-12-08T04:26:07.226Z,101527.59
2022-12-08T04:27:09.088Z,101534.42
2022-12-08T04:28:10.906Z,101523.19
2022-12-08T04:29:12.718Z,101535.13
2022-12-08T04:30:15.228Z,101523.10
2022-12-08T04:31:17.087Z,101533.38
2022-12-08T04:32:19.038Z,101531.60
2022-12-08T04:33:20.840Z,101537.62
2022-12-08T04:34:22.642Z,101527.25
2022-12-08T04:35:24.455Z,101531.52
2022-12-08T04:36:26.605Z,101527.98
2022-12-08T04:37:28.466Z,101532.22
2022-12-08T04:38:30.287Z,101534.62
2022-12-08T04:39:32.164Z,101529.39
2022-12-08T04:40:34.189Z,101531.87
2022-12-08T04:41:35.983Z,101537.92
2022-12-08T04:42:37.732Z,101536.14
2022-12-08T04:43:39.522Z,101533.48
2022-12-08T04:44:41.345Z,101532.53
2022-12-08T04:45:43.151Z,101537.75
2022-12-08T04:46:45.179Z,101530.83
2022-12-08T04:47:47.031Z,101536.76
2022-12-08T04:48:48.854Z,101536.84
2022-12-08T04:49:50.642Z,101530.05
2022-12-08T04:50:52.546Z,101538.71
2022-12-08T04:51:54.345Z,101541.28
2022-12-08T04:52:56.182Z,101538.80
2022-12-08T04:53:57.979Z,101529.31
2022-12-08T04:54:59.778Z,101539.50
2022-12-08T04:56:01.586Z,101547.20
2022-12-08T04:57:03.411Z,101539.41
2022-12-08T04:58:05.270Z,101535.97
2022-12-08T04:59:07.060Z,101543.59
2022-12-08T05:00:09.675Z,101537.58
2022-12-08T05:01:11.532Z,101547.03
2022-12-08T05:02:13.634Z,101545.37
2022-12-08T05:03:15.624Z,101546.25
2022-12-08T05:04:17.433Z,101546.25
2022-12-08T05:05:19.249Z,101546.16
2022-12-08T05:06:21.159Z,101540.15
2022-12-08T05:07:22.940Z,101554.74
2022-12-08T05:08:24.826Z,101548.03
2022-12-08T05:09:26.702Z,101555.83
2022-12-08T05:10:28.846Z,101562.80
2022-12-08T05:11:30.621Z,101551.91
2022-12-08T05:12:32.445Z,101561.56
2022-12-08T05:13:34.316Z,101560.74
2022-12-08T05:14:36.136Z,101563.40
2022-12-08T05:15:37.938Z,101559.25
2022-12-08T05:16:39.995Z,101558.43
2022-12-08T05:17:41.864Z,101561.99
2022-12-08T05:18:43.762Z,101556.94
2022-12-08T05:19:45.579Z,101563.94
2022-12-08T05:20:47.681Z,101564.81
2022-12-08T05:21:49.465Z,101561.45
2022-12-08T05:22:51.254Z,101562.42
2022-12-08T05:23:53.094Z,101560.72
2022-12-08T05:24:54.924Z,101565.16
2022-12-08T05:25:56.755Z,101562.50
2022-12-08T05:26:58.968Z,101565.86
2022-12-08T05:28:32.326Z,101568.34
2022-12-08T05:29:04.464Z,101566.59
2022-12-08T05:30:06.925Z,101565.52
2022-12-08T05:31:08.969Z,101567.30
2022-12-08T05:32:10.738Z,101566.43
2022-12-08T05:33:12.538Z,101564.65
2022-12-08T05:34:14.412Z,101569.08
2022-12-08T05:35:16.479Z,101575.97
2022-12-08T05:36:18.377Z,101572.61
2022-12-08T05:37:20.219Z,101569.17
2022-12-08T05:38:22.050Z,101574.48
2022-12-08T05:39:23.875Z,101574.48
2022-12-08T05:40:25.802Z,101569.42
2022-12-08T05:41:27.626Z,101573.74
2022-12-08T05:42:29.413Z,101574.73
2022-12-08T05:43:31.227Z,101577.22
2022-12-08T05:44:33.076Z,101583.23
2022-12-08T05:45:34.943Z,101579.79
2022-12-08T05:46:37.000Z,101578.97
2022-12-08T05:47:38.810Z,101587.67
2022-12-08T05:48:40.622Z,101583.41
2022-12-08T05:49:42.515Z,101587.67
2022-12-08T05:50:44.434Z,101588.46
2022-12-08T05:51:46.224Z,101591.03
2022-12-08T05:52:48.033Z,101591.91
2022-12-08T05:53:49.837Z,101591.12
2022-12-08T05:54:51.701Z,101602.36
2022-12-08T05:55:53.535Z,101593.07
2022-12-08T05:56:55.512Z,101594.73
2022-12-08T05:57:57.333Z,101589.67
2022-12-08T05:58:59.168Z,101585.36
2022-12-08T06:00:01.130Z,101583.49
2022-12-08T06:01:03.030Z,101583.32
2022-12-08T06:02:04.962Z,101569.42
2022-12-08T06:03:06.934Z,101580.58
2022-12-08T06:04:08.739Z,101579.63
2022-12-08T06:05:10.658Z,101585.64
2022-12-08T06:06:12.750Z,101584.84
2022-12-08T06:07:16.162Z,101583.94
2022-12-08T06:08:18.243Z,101586.52
2022-12-08T06:09:20.074Z,101591.65
2022-12-08T06:10:22.043Z,101590.86
2022-12-08T06:11:23.862Z,101591.56
2022-12-08T06:12:25.659Z,101585.47
2022-12-08T06:13:27.472Z,101586.25
2022-12-08T06:14:29.293Z,101587.16
2022-12-08T06:15:31.260Z,101591.48
2022-12-08T06:16:33.212Z,101589.81
2022-12-08T06:17:35.059Z,101594.22
2022-12-08T06:18:36.886Z,101596.88
2022-12-08T06:19:38.700Z,101598.74
2022-12-08T06:20:40.761Z,101596.26
2022-12-08T06:21:42.580Z,101595.38
2022-12-08T06:22:44.399Z,101593.69
2022-12-08T06:23:46.185Z,101597.05
2022-12-08T06:24:48.004Z,101600.61
2022-12-08T06:25:49.875Z,101597.13
2022-12-08T06:26:51.782Z,101596.26
2022-12-08T06:27:53.587Z,101604.05
2022-12-08T06:28:55.404Z,101596.34
2022-12-08T06:29:57.212Z,101589.42
2022-12-08T06:30:59.255Z,101595.38
2022-12-08T06:32:01.145Z,101593.60
2022-12-08T06:33:02.964Z,101592.73
2022-12-08T06:34:04.778Z,101594.48
2022-12-08T06:35:06.586Z,101595.47
2022-12-08T06:36:09.411Z,101600.70
2022-12-08T06:37:11.212Z,101598.04
2022-12-08T06:38:13.043Z,101596.26
2022-12-08T06:39:14.864Z,101593.69
2022-12-08T06:40:16.781Z,101593.69
2022-12-08T06:41:18.624Z,101597.05
2022-12-08T06:42:20.469Z,101596.34
2022-12-08T06:43:22.262Z,101599.87
2022-12-08T06:44:24.059Z,101589.67
2022-12-08T06:45:25.874Z,101592.25
2022-12-08T06:46:28.278Z,101592.48
2022-12-08T06:47:30.049Z,101586.44
2022-12-08T06:48:31.844Z,101582.20
2022-12-08T06:49:33.656Z,101589.91
2022-12-08T06:50:35.603Z,101591.58
2022-12-08T06:51:37.584Z,101597.62
2022-12-08T06:52:49.230Z,101597.62
2022-12-08T06:53:43.045Z,101590.79
2022-12-08T06:54:44.838Z,101595.22
2022-12-08T06:56:02.058Z,101597.80
2022-12-08T06:56:50.421Z,101595.22
2022-12-08T06:57:54.061Z,101596.97
2022-12-08T06:58:55.842Z,101600.45
2022-12-08T06:59:57.652Z,101590.08
2022-12-08T07:00:59.921Z,101588.22
2022-12-08T07:02:01.881Z,101596.80
2022-12-08T07:03:03.768Z,101598.59
2022-12-08T07:04:05.584Z,101595.31
2022-12-08T07:05:07.389Z,101607.42
2022-12-08T07:06:09.308Z,101597.05
2022-12-08T07:07:11.206Z,101596.19
2022-12-08T07:08:13.045Z,101599.63
2022-12-08T07:09:14.969Z,101597.88
2022-12-08T07:10:17.083Z,101600.45
2022-12-08T07:11:21.948Z,101598.75
2022-12-08T07:12:22.567Z,101594.48
2022-12-08T07:13:24.393Z,101595.39
2022-12-08T07:14:26.198Z,101599.71
2022-12-08T07:15:27.999Z,101607.42
2022-12-08T07:16:29.931Z,101609.30
2022-12-08T07:17:31.849Z,101614.44
2022-12-08T07:18:33.695Z,101610.08
2022-12-08T07:19:35.496Z,101615.22
2022-12-08T07:20:37.403Z,101617.80
2022-12-08T07:21:39.204Z,101618.70
2022-12-08T07:22:41.095Z,101614.44
2022-12-08T07:23:42.986Z,101623.93
2022-12-08T07:24:44.820Z,101617.97
2022-12-08T07:25:46.643Z,101624.10
2022-12-08T07:26:48.547Z,101617.26
2022-12-08T07:27:50.385Z,101619.04
2022-12-08T07:28:52.498Z,101622.41
2022-12-08T07:29:54.307Z,101628.50
2022-12-08T07:30:56.236Z,101624.27
2022-12-08T07:31:58.030Z,101623.45
2022-12-08T07:32:59.939Z,101622.66
2022-12-08T07:34:01.757Z,101619.21
2022-12-08T07:35:03.556Z,101620.95
2022-12-08T07:36:05.470Z,101619.21
2022-12-08T07:37:07.295Z,101616.64
2022-12-08T07:38:09.295Z,101609.71
2022-12-08T07:39:11.064Z,101605.44
2022-12-08T07:40:12.982Z,101605.44
2022-12-08T07:41:14.809Z,101607.22
2022-12-08T07:42:16.634Z,101607.22
2022-12-08T07:43:18.473Z,101611.49
2022-12-08T07:44:20.269Z,101612.28
2022-12-08T07:45:25.672Z,101607.93
2022-12-08T07:46:25.847Z,101609.71
2022-12-08T07:47:27.719Z,101601.91
2022-12-08T07:48:29.561Z,101601.91
2022-12-08T07:49:31.383Z,101613.24
2022-12-08T07:50:33.293Z,101602.00
2022-12-08T07:51:35.121Z,101608.09
2022-12-08T07:52:36.972Z,101618.50
2022-12-08T07:53:42.206Z,101621.08
2022-12-08T07:54:42.524Z,101622.91
2022-12-08T07:55:44.343Z,101617.93
2022-12-08T07:56:46.419Z,101622.28
2022-12-08T07:57:48.237Z,101603.41
2022-12-08T07:58:50.086Z,101615.36
2022-12-08T07:59:53.828Z,101607.64
2022-12-08T08:00:55.751Z,101614.48
2022-12-08T08:02:21.347Z,101612.00
2022-12-08T08:03:01.314Z,101608.55
2022-12-08T08:04:03.251Z,101617.22
2022-12-08T08:05:05.088Z,101613.86
2022-12-08T08:06:07.143Z,101609.59
2022-12-08T08:07:08.961Z,101610.47
2022-12-08T08:08:10.868Z,101607.97
2022-12-08T08:09:12.777Z,101613.95
2022-12-08T08:10:14.815Z,101617.39
2022-12-08T08:11:20.816Z,101618.27
2022-12-08T08:12:31.357Z,101612.16
2022-12-08T08:13:23.845Z,101619.17
2022-12-08T08:14:27.227Z,101610.63
2022-12-08T08:15:29.134Z,101614.11
2022-12-08T08:16:37.974Z,101610.80
2022-12-08T08:17:34.962Z,101610.00
2022-12-08T08:18:36.812Z,101599.72
2022-12-08T08:19:38.654Z,101598.02
2022-12-08T08:20:40.571Z,101603.98
2022-12-08T08:21:46.459Z,101594.41
2022-12-08T08:22:46.007Z,101603.00
2022-12-08T08:23:47.846Z,101602.29
2022-12-08T08:24:49.727Z,101599.72
2022-12-08T08:25:51.545Z,101594.57
2022-12-08T08:26:53.637Z,101603.16
2022-12-08T08:27:55.450Z,101601.58
2022-12-08T08:28:57.246Z,101601.50
2022-12-08T08:29:59.069Z,101607.52
2022-12-08T08:31:01.093Z,101601.50
2022-12-08T08:32:02.912Z,101609.30
2022-12-08T08:33:04.736Z,101597.23
2022-12-08T08:34:06.788Z,101607.52
2022-12-08T08:35:08.685Z,101606.72
2022-12-08T08:36:10.701Z,101611.05
2022-12-08T08:37:12.582Z,101609.37
2022-12-08T08:38:14.434Z,101611.95
2022-12-08T08:39:16.223Z,101616.19
2022-12-08T08:40:18.172Z,101617.18
2022-12-08T08:41:19.973Z,101613.81
2022-12-08T08:42:21.799Z,101601.83
2022-12-08T08:43:23.602Z,101604.56
2022-12-08T08:44:25.407Z,101608.83
2022-12-08T08:45:27.259Z,101604.56
2022-12-08T08:46:29.259Z,101607.22
2022-12-08T08:47:31.076Z,101609.87
2022-12-08T08:48:32.889Z,101611.66
2022-12-08T08:49:34.696Z,101605.59
2022-12-08T08:50:37.811Z,101603.85
2022-12-08T08:51:39.752Z,101604.72
2022-12-08T08:52:41.567Z,101603.77
2022-12-08T08:53:43.356Z,101604.48
2022-12-08T08:54:45.176Z,101601.91
2022-12-08T08:55:47.027Z,101602.86
2022-12-08T08:56:48.944Z,101594.27
2022-12-08T08:57:50.771Z,101594.27
2022-12-08T08:58:52.595Z,101597.88
2022-12-08T08:59:54.423Z,101597.88
2022-12-08T09:00:56.403Z,101592.66
2022-12-08T09:01:58.320Z,101596.13
2022-12-08T09:03:00.085Z,101589.29
2022-12-08T09:04:01.975Z,101595.23
2022-12-08T09:05:03.919Z,101590.16
2022-12-08T09:06:06.398Z,101585.84
2022-12-08T09:07:08.225Z,101590.98
2022-12-08T09:08:10.115Z,101593.64
2022-12-08T09:09:11.969Z,101588.41
2022-12-08T09:10:14.109Z,101591.86
2022-12-08T09:11:16.152Z,101584.22
2022-12-08T09:12:17.951Z,101586.72
2022-12-08T09:13:19.755Z,101578.12
2022-12-08T09:14:21.555Z,101579.87
2022-12-08T09:15:23.342Z,101581.65
2022-12-08T09:16:25.278Z,101582.52
2022-12-08T09:17:27.114Z,101581.65
2022-12-08T09:18:28.934Z,101587.67
2022-12-08T09:19:30.834Z,101588.58
2022-12-08T09:20:32.802Z,101593.80
2022-12-08T09:21:34.594Z,101587.67
2022-12-08T09:22:36.387Z,101592.11
2022-12-08T09:23:38.109Z,101588.73
2022-12-08T09:24:39.892Z,101594.05
2022-12-08T09:25:41.706Z,101589.77
2022-12-08T09:26:43.693Z,101593.30
2022-12-08T09:27:45.486Z,101585.50
2022-12-08T09:28:47.305Z,101589.86
2022-12-08T09:29:49.117Z,101593.30
2022-12-08T09:30:51.167Z,101592.51
2022-12-08T09:31:53.057Z,101583.01
2022-12-08T09:32:54.908Z,101588.98
2022-12-08T09:33:56.740Z,101587.28
2022-12-08T09:34:58.584Z,101583.83
2022-12-08T09:36:00.397Z,101586.33
2022-12-08T09:37:02.230Z,101579.40
2022-12-08T09:38:04.054Z,101581.18
2022-12-08T09:39:05.882Z,101582.13
2022-12-08T09:40:08.079Z,101581.34
2022-12-08T09:41:09.987Z,101575.37
2022-12-08T09:42:12.039Z,101583.91
2022-12-08T09:43:13.839Z,101583.91
2022-12-08T09:44:15.648Z,101588.16
2022-12-08T09:45:17.583Z,101585.58
2022-12-08T09:46:19.542Z,101587.28
2022-12-08T09:47:21.509Z,101588.16
2022-12-08T09:48:23.389Z,101590.73
2022-12-08T09:49:25.185Z,101591.63
2022-12-08T09:50:27.197Z,101591.63
2022-12-08T09:51:28.994Z,101599.52
2022-12-08T09:52:30.821Z,101595.24
2022-12-08T09:53:35.716Z,101597.90
2022-12-08T09:54:36.393Z,101604.83
2022-12-08T09:55:38.207Z,101599.76
2022-12-08T09:56:40.259Z,101605.78
2022-12-08T09:57:42.142Z,101597.34
2022-12-08T09:58:43.954Z,101597.34
2022-12-08T09:59:45.753Z,101597.50
2022-12-08T10:00:47.680Z,101599.28
2022-12-08T10:01:49.556Z,101597.59
2022-12-08T10:02:51.418Z,101597.66
2022-12-08T10:03:53.209Z,101592.52
2022-12-08T10:04:55.093Z,101602.10
2022-12-08T10:05:57.052Z,101599.61
2022-12-08T10:06:59.167Z,101594.45
2022-12-08T10:08:01.092Z,101595.33
2022-12-08T10:09:02.943Z,101591.96
2022-12-08T10:10:05.169Z,101591.13
2022-12-08T10:11:07.254Z,101597.98
2022-12-08T10:12:09.033Z,101590.34
2022-12-08T10:13:10.916Z,101596.36
2022-12-08T10:14:12.726Z,101601.52
2022-12-08T10:15:14.537Z,101585.98
2022-12-08T10:16:23.110Z,101592.84
2022-12-08T10:17:20.165Z,101592.84
2022-12-08T10:18:22.024Z,101592.12
2022-12-08T10:19:23.855Z,101590.42
2022-12-08T10:20:25.866Z,101593.90
2022-12-08T10:21:27.708Z,101590.50
2022-12-08T10:22:29.536Z,101593.98
2022-12-08T10:23:31.338Z,101587.13
2022-12-08T10:24:33.126Z,101578.45
2022-12-08T10:25:34.952Z,101585.42
2022-12-08T10:26:36.966Z,101588.08
2022-12-08T10:27:38.793Z,101586.41
2022-12-08T10:28:44.871Z,101594.14
2022-12-08T10:29:44.325Z,101589.94
2022-12-08T10:30:46.547Z,101589.94
2022-12-08T10:31:48.445Z,101592.59
2022-12-08T10:32:50.277Z,101594.45
2022-12-08T10:33:52.166Z,101596.20
2022-12-08T10:34:56.465Z,101605.78
2022-12-08T10:35:57.584Z,101602.33
2022-12-08T10:36:59.591Z,101595.48
2022-12-08T10:38:01.390Z,101604.08
2022-12-08T10:39:03.247Z,101598.13
2022-12-08T10:40:05.735Z,101592.11
2022-12-08T10:41:07.665Z,101591.28
2022-12-08T10:42:09.484Z,101588.70
2022-12-08T10:43:11.287Z,101592.98
2022-12-08T10:44:13.196Z,101597.18
2022-12-08T10:45:14.982Z,101592.83
2022-12-08T10:46:16.937Z,101592.83
2022-12-08T10:47:18.776Z,101596.27
2022-12-08T10:48:20.614Z,101593.78
2022-12-08T10:49:22.457Z,101593.78
2022-12-08T10:50:24.273Z,101589.45
2022-12-08T10:51:26.099Z,101583.48
2022-12-08T10:52:27.908Z,101591.36
2022-12-08T10:53:29.725Z,101586.20
2022-12-08T10:54:31.598Z,101582.84
2022-12-08T10:55:33.396Z,101581.21
2022-12-08T10:56:35.324Z,101576.17
2022-12-08T10:57:37.125Z,101582.20
2022-12-08T10:58:38.918Z,101587.27
2022-12-08T10:59:40.859Z,101591.62
2022-12-08T11:00:43.229Z,101584.70
2022-12-08T11:01:45.297Z,101582.20
2022-12-08T11:02:47.390Z,101586.55
2022-12-08T11:03:49.200Z,101583.98
2022-12-08T11:04:51.338Z,101583.07
2022-12-08T11:05:53.162Z,101584.92
2022-12-08T11:06:55.260Z,101582.27
2022-12-08T11:07:57.144Z,101583.15
2022-12-08T11:08:58.902Z,101580.57
2022-12-08T11:10:00.737Z,101588.38
2022-12-08T11:11:02.539Z,101584.13
2022-12-08T11:12:04.354Z,101585.08
2022-12-08T11:13:06.161Z,101587.66
2022-12-08T11:14:07.976Z,101579.13
2022-12-08T11:15:09.884Z,101588.61
2022-12-08T11:16:12.110Z,101579.21
2022-12-08T11:17:14.027Z,101577.51
2022-12-08T11:18:15.830Z,101576.63
2022-12-08T11:19:17.642Z,101570.58
2022-12-08T11:20:19.592Z,101579.28
2022-12-08T11:21:21.394Z,101575.80
2022-12-08T11:22:23.214Z,101572.36
2022-12-08T11:23:25.017Z,101574.93
2022-12-08T11:24:26.845Z,101571.41
2022-12-08T11:25:28.675Z,101566.18
2022-12-08T11:26:30.580Z,101577.28
2022-12-08T11:27:32.385Z,101573.00
2022-12-08T11:28:34.216Z,101572.13
2022-12-08T11:29:36.035Z,101573.00
2022-12-08T11:30:38.384Z,101571.25
2022-12-08T11:31:40.234Z,101581.55
2022-12-08T11:32:42.113Z,101571.25
2022-12-08T11:33:43.911Z,101576.48
2022-12-08T11:34:45.725Z,101574.78
2022-12-08T11:35:47.605Z,101572.20
2022-12-08T11:36:49.691Z,101572.36
2022-12-08T11:37:51.508Z,101571.56
2022-12-08T11:38:53.325Z,101574.06
2022-12-08T11:39:55.178Z,101569.78
2022-12-08T11:40:57.739Z,101570.58
2022-12-08T11:41:59.560Z,101575.80
2022-12-08T11:43:01.370Z,101573.31
2022-12-08T11:44:03.224Z,101573.23
2022-12-08T11:45:05.371Z,101573.31
2022-12-08T11:46:08.170Z,101574.21
2022-12-08T11:47:10.034Z,101579.44
2022-12-08T11:48:11.851Z,101576.03